Time;durP1;ratioP1;P1;durP2;ratioP2;P2;SDS_P1;SDS_P2;PMS_P1;PMS_P2;Temp;Humidity;BMP_temperature;BMP_pressure;BME280_temperature;BME280_humidity;BME280_pressure;Samples;Min_cycle;Max_cycle;Signal;HPM_P1;HPM_P2
2021/07/28 00:00:02;;;;;;;14.70;13.50;;;20.80;99.90;;;;;;5027430;28;20659;-91
2021/07/28 00:02:28;;;;;;;14.40;13.20;;;20.80;99.90;;;;;;5029838;28;21198;-93
2021/07/28 00:04:54;;;;;;;14.70;13.50;;;20.70;99.90;;;;;;5039695;28;20623;-92
2021/07/28 00:07:19;;;;;;;15.57;14.17;;;20.70;99.90;;;;;;5031340;28;20219;-91
2021/07/28 00:09:45;;;;;;;15.57;14.27;;;20.70;99.90;;;;;;5032198;28;20212;-91
2021/07/28 00:12:10;;;;;;;16.03;14.70;;;20.70;99.90;;;;;;5035909;28;20243;-92
2021/07/28 00:14:36;;;;;;;14.87;13.57;;;20.60;99.90;;;;;;5033374;28;20204;-89
2021/07/28 00:17:03;;;;;;;15.53;14.33;;;20.60;99.90;;;;;;5033499;28;20173;-92
2021/07/28 00:19:33;;;;;;;15.00;13.70;;;20.60;99.90;;;;;;5032343;28;20780;-91
2021/07/28 00:24:43;;;;;;;15.23;13.73;;;20.50;99.90;;;;;;5035230;28;20638;-91
2021/07/28 00:27:08;;;;;;;15.10;13.80;;;20.50;99.90;;;;;;5032238;28;20640;-92
2021/07/28 00:29:37;;;;;;;15.40;14.03;;;20.60;99.90;;;;;;5023858;28;20293;-91
2021/07/28 00:32:03;;;;;;;14.80;13.60;;;20.60;99.90;;;;;;5032780;28;20324;-90
2021/07/28 00:34:29;;;;;;;15.60;14.20;;;20.50;99.90;;;;;;5032230;28;20632;-91
2021/07/28 00:36:54;;;;;;;16.60;15.10;;;20.50;99.90;;;;;;5033631;28;20212;-92
2021/07/28 00:39:20;;;;;;;14.37;13.17;;;20.40;99.90;;;;;;5032806;28;20237;-91
2021/07/28 00:41:46;;;;;;;14.23;13.10;;;20.40;99.90;;;;;;5031820;28;20208;-91
2021/07/28 00:44:12;;;;;;;15.20;13.90;;;20.40;99.90;;;;;;5046996;28;20196;-91
2021/07/28 00:46:38;;;;;;;14.60;13.40;;;20.40;99.90;;;;;;5034202;28;20268;-91
2021/07/28 00:49:04;;;;;;;14.63;13.43;;;20.40;99.90;;;;;;5031692;28;20647;-92
2021/07/28 00:51:30;;;;;;;14.93;13.63;;;20.40;99.90;;;;;;5033305;28;20205;-91
2021/07/28 00:53:56;;;;;;;14.13;12.93;;;20.40;99.90;;;;;;5033519;28;20620;-90
2021/07/28 00:56:22;;;;;;;13.53;12.33;;;20.40;99.90;;;;;;5034317;28;20620;-91
2021/07/28 00:58:51;;;;;;;14.83;13.43;;;20.30;99.90;;;;;;5032149;28;20651;-91
2021/07/28 01:01:17;;;;;;;13.60;12.50;;;20.30;99.90;;;;;;5031907;28;20230;-90
2021/07/28 01:03:43;;;;;;;14.53;13.37;;;20.30;99.90;;;;;;5027253;28;20614;-90
2021/07/28 01:06:10;;;;;;;14.53;13.27;;;20.20;99.90;;;;;;5033869;28;20678;-92
2021/07/28 01:08:35;;;;;;;14.87;13.60;;;20.30;99.90;;;;;;5031583;28;20208;-91
2021/07/28 01:11:04;;;;;;;14.10;12.80;;;20.40;99.90;;;;;;5034173;28;20632;-91
2021/07/28 01:13:31;;;;;;;12.90;11.80;;;20.30;99.90;;;;;;5016459;28;20169;-92
2021/07/28 01:16:07;;;;;;;13.17;11.90;;;20.30;99.90;;;;;;5033521;28;20640;-91
2021/07/28 01:18:34;;;;;;;13.30;12.20;;;20.30;99.90;;;;;;5047742;28;20676;-92
2021/07/28 01:21:00;;;;;;;13.47;12.37;;;20.30;99.90;;;;;;5033147;28;20659;-91
2021/07/28 01:23:26;;;;;;;;;;;20.20;99.90;;;;;;5030933;28;20619;-92
2021/07/28 01:25:53;;;;;;;;;;;20.20;99.90;;;;;;5031452;28;19916;-91
2021/07/28 01:28:33;;;;;;;84.53;82.43;;;20.20;99.90;;;;;;5032587;28;24413;-91
2021/07/28 01:31:11;;;;;;;12.30;10.57;;;20.10;99.90;;;;;;5032832;28;20209;-92
2021/07/28 01:33:38;;;;;;;11.00;10.10;;;20.20;99.90;;;;;;5031439;28;20758;-90
2021/07/28 01:36:06;;;;;;;11.27;10.30;;;20.20;99.90;;;;;;5044499;28;20739;-90
2021/07/28 01:38:33;;;;;;;11.10;10.20;;;20.20;99.90;;;;;;5015694;28;20660;-91
2021/07/28 01:41:01;;;;;;;11.30;10.33;;;20.20;99.90;;;;;;5031878;28;20686;-89
2021/07/28 01:43:28;;;;;;;10.90;10.00;;;20.30;99.90;;;;;;5039375;23;20687;-92
2021/07/28 01:45:54;;;;;;;10.07;9.17;;;20.20;99.90;;;;;;5011993;28;20643;-90
2021/07/28 01:48:20;;;;;;;9.57;8.77;;;20.10;99.90;;;;;;5022170;28;20609;-92
2021/07/28 01:50:46;;;;;;;9.37;8.67;;;20.00;99.90;;;;;;5003250;28;20666;-91
2021/07/28 01:53:13;;;;;;;8.70;8.07;;;20.00;99.90;;;;;;4992948;28;20716;-93
2021/07/28 01:55:39;;;;;;;8.30;7.60;;;20.00;99.90;;;;;;4989876;28;20275;-91
2021/07/28 01:58:05;;;;;;;9.60;8.70;;;20.00;99.90;;;;;;4975463;28;20626;-92
2021/07/28 02:00:31;;;;;;;8.70;8.00;;;20.00;99.90;;;;;;4987779;28;20803;-92
2021/07/28 02:03:02;;;;;;;9.67;8.77;;;20.00;99.90;;;;;;4970754;28;20218;-92
2021/07/28 02:05:36;;;;;;;9.90;9.10;;;19.90;99.90;;;;;;4988069;28;20175;-92
2021/07/28 02:08:06;;;;;;;10.07;9.07;;;19.90;99.90;;;;;;4990578;28;20711;-91
2021/07/28 02:10:35;;;;;;;8.30;7.60;;;19.90;99.90;;;;;;4984258;28;20647;-90
2021/07/28 02:13:01;;;;;;;8.23;7.53;;;19.90;99.90;;;;;;4970049;28;20645;-92
2021/07/28 02:15:28;;;;;;;9.03;8.33;;;19.90;99.90;;;;;;4969632;28;20623;-92
2021/07/28 02:17:55;;;;;;;9.40;8.47;;;19.90;99.90;;;;;;4977914;28;20658;-91
2021/07/28 02:20:22;;;;;;;8.90;8.20;;;19.80;99.90;;;;;;4990278;28;20677;-90
2021/07/28 02:22:48;;;;;;;8.97;8.20;;;19.80;99.90;;;;;;4986528;28;20630;-90
2021/07/28 02:25:16;;;;;;;8.10;7.50;;;19.90;99.90;;;;;;4988124;28;21189;-92
2021/07/28 02:27:42;;;;;;;9.37;8.63;;;19.80;99.90;;;;;;4982954;28;20709;-91
2021/07/28 02:30:10;;;;;;;10.00;9.20;;;19.80;99.90;;;;;;4984261;28;20637;-91
2021/07/28 02:32:39;;;;;;;8.57;7.87;;;19.70;99.90;;;;;;4985353;28;20657;-92
2021/07/28 02:35:06;;;;;;;9.90;9.00;;;19.70;99.90;;;;;;4990700;28;20664;-91
2021/07/28 02:37:35;;;;;;;8.30;7.50;;;19.70;99.90;;;;;;4984457;28;20634;-91
2021/07/28 02:40:02;;;;;;;8.33;7.70;;;19.60;99.90;;;;;;4983628;28;20646;-91
2021/07/28 02:42:27;;;;;;;8.73;8.03;;;19.70;99.90;;;;;;4974368;28;21081;-93
2021/07/28 02:44:53;;;;;;;8.50;7.80;;;19.60;99.90;;;;;;4988447;28;20657;-92
2021/07/28 02:47:37;;;;;;;8.50;7.70;;;19.70;99.90;;;;;;4992178;28;20219;-93
2021/07/28 02:50:35;;;;;;;7.57;6.93;;;19.60;99.90;;;;;;4992479;28;20238;-92
2021/07/28 02:53:01;;;;;;;8.00;7.40;;;19.60;99.90;;;;;;5038146;23;20695;-92
2021/07/28 02:55:27;;;;;;;8.17;7.47;;;19.60;99.90;;;;;;5028211;28;20688;-92
2021/07/28 02:57:52;;;;;;;8.03;7.37;;;19.60;99.90;;;;;;5039730;28;20259;-92
2021/07/28 03:00:18;;;;;;;8.97;8.20;;;19.70;99.90;;;;;;5024746;28;20654;-92
2021/07/28 03:02:44;;;;;;;8.03;7.27;;;19.60;99.90;;;;;;5007062;28;20190;-92
2021/07/28 03:05:12;;;;;;;8.77;7.93;;;19.60;99.90;;;;;;5013066;28;20249;-92
2021/07/28 03:07:38;;;;;;;8.50;7.80;;;19.60;99.90;;;;;;5025144;23;20243;-92
2021/07/28 03:10:04;;;;;;;8.23;7.50;;;19.60;99.90;;;;;;4994094;28;20661;-91
2021/07/28 03:12:30;;;;;;;8.27;7.57;;;19.60;99.90;;;;;;5005254;28;20189;-93
2021/07/28 03:14:55;;;;;;;7.70;7.10;;;19.60;99.90;;;;;;5055070;23;20704;-92
2021/07/28 03:17:21;;;;;;;7.43;6.83;;;19.60;99.90;;;;;;4991795;28;20241;-92
2021/07/28 03:19:47;;;;;;;7.40;6.80;;;19.60;99.90;;;;;;5194154;23;20255;-91
2021/07/28 03:22:13;;;;;;;8.00;7.30;;;19.60;99.90;;;;;;4992494;28;20654;-91
2021/07/28 05:02:23;;;;;;;9.80;8.80;;;19.50;99.90;;;;;;1526673;23;20997;-88
2021/07/28 05:04:49;;;;;;;10.30;9.40;;;19.60;99.90;;;;;;5056240;23;20664;-92
2021/07/28 05:07:14;;;;;;;10.43;9.43;;;19.60;99.90;;;;;;5009602;28;20724;-91
2021/07/28 05:09:41;;;;;;;10.57;9.57;;;19.60;99.90;;;;;;4993138;28;20278;-91
2021/07/28 05:12:07;;;;;;;10.70;9.17;;;19.60;99.90;;;;;;4973779;28;20207;-92
2021/07/28 05:14:32;;;;;;;10.20;9.20;;;19.70;99.90;;;;;;4993923;28;20645;-89
2021/07/28 05:16:58;;;;;;;12.63;9.90;;;19.70;99.90;;;;;;4993672;28;20242;-90
2021/07/28 05:19:24;;;;;;;10.00;9.10;;;19.80;99.90;;;;;;4994654;28;20287;-93
2021/07/28 05:21:54;;;;;;;11.17;9.97;;;19.80;99.90;;;;;;4995880;28;20191;-91
2021/07/28 05:24:20;;;;;;;10.30;9.40;;;19.80;99.90;;;;;;4995680;28;20626;-89
2021/07/28 05:26:45;;;;;;;10.67;9.60;;;19.90;99.90;;;;;;4989232;28;20669;-90
2021/07/28 05:29:11;;;;;;;10.47;9.47;;;19.90;99.90;;;;;;4986978;28;20862;-91
2021/07/28 05:31:37;;;;;;;9.73;8.83;;;20.00;99.90;;;;;;4985862;28;20222;-92
2021/07/28 05:34:03;;;;;;;11.47;10.30;;;20.00;99.90;;;;;;4980858;28;21428;-92
2021/07/28 05:36:28;;;;;;;11.83;10.60;;;20.10;99.90;;;;;;4992732;28;20622;-92
2021/07/28 05:38:54;;;;;;;10.90;9.90;;;20.10;99.90;;;;;;5000783;28;20202;-92
2021/07/28 05:41:19;;;;;;;11.63;10.40;;;20.20;99.90;;;;;;4992901;28;20237;-92
2021/07/28 05:43:45;;;;;;;11.73;10.57;;;20.20;99.90;;;;;;4990089;28;20190;-93
2021/07/28 05:46:11;;;;;;;13.70;12.33;;;20.20;99.90;;;;;;4989003;28;20190;-93
2021/07/28 05:48:36;;;;;;;14.20;12.80;;;20.30;99.90;;;;;;4994408;28;20616;-92
2021/07/28 05:51:02;;;;;;;15.00;13.60;;;20.40;99.90;;;;;;4991083;28;20242;-92
2021/07/28 05:53:28;;;;;;;14.20;12.90;;;20.20;99.90;;;;;;4990935;28;20221;-92
2021/07/28 05:55:53;;;;;;;13.70;12.30;;;20.20;99.90;;;;;;4994731;28;20286;-92
2021/07/28 05:58:22;;;;;;;12.70;11.50;;;20.10;99.90;;;;;;4991978;28;20183;-93
2021/07/28 06:00:48;;;;;;;14.07;12.63;;;20.10;99.90;;;;;;4989925;28;20241;-91
2021/07/28 06:03:14;;;;;;;13.33;11.73;;;20.10;99.90;;;;;;4989361;28;21240;-92
2021/07/28 06:05:47;;;;;;;15.20;13.37;;;20.20;99.90;;;;;;4981243;28;20642;-92
2021/07/28 06:08:13;;;;;;;14.93;12.40;;;20.10;99.90;;;;;;4988061;28;20190;-92
2021/07/28 06:10:40;;;;;;;14.30;12.80;;;20.00;99.90;;;;;;4987575;28;20638;-91
2021/07/28 06:13:06;;;;;;;14.70;12.57;;;20.00;99.90;;;;;;4990949;28;20607;-91
2021/07/28 06:15:32;;;;;;;13.00;11.70;;;20.00;99.90;;;;;;4991728;28;20913;-92
2021/07/28 06:17:57;;;;;;;19.13;12.67;;;20.10;99.90;;;;;;4991075;28;20243;-91
2021/07/28 06:20:23;;;;;;;13.23;11.13;;;20.10;99.90;;;;;;4991719;28;20238;-92
2021/07/28 06:22:48;;;;;;;13.10;11.80;;;20.10;99.90;;;;;;4985588;28;20183;-92
2021/07/28 06:25:14;;;;;;;10.53;9.30;;;20.30;99.90;;;;;;4990308;28;20210;-91
2021/07/28 06:27:40;;;;;;;10.67;9.63;;;20.20;99.90;;;;;;4989334;28;20183;-91
2021/07/28 06:30:06;;;;;;;11.63;10.53;;;20.30;99.90;;;;;;4985477;28;20290;-91
2021/07/28 06:32:31;;;;;;;10.20;9.20;;;20.40;99.90;;;;;;4985316;28;20203;-91
2021/07/28 06:34:57;;;;;;;10.70;9.60;;;20.50;99.90;;;;;;4986212;28;20673;-92
2021/07/28 06:37:22;;;;;;;10.10;9.10;;;20.50;99.90;;;;;;4985869;28;20203;-92
2021/07/28 06:39:48;;;;;;;8.70;8.00;;;20.70;99.90;;;;;;4984409;28;20286;-92
2021/07/28 06:42:14;;;;;;;9.87;8.87;;;20.70;99.90;;;;;;4981013;28;20223;-91
2021/07/28 06:44:41;;;;;;;9.70;8.80;;;20.80;99.90;;;;;;4979549;28;20341;-91
2021/07/28 06:47:07;;;;;;;9.27;8.43;;;20.80;99.90;;;;;;4986762;28;20205;-91
2021/07/28 06:49:33;;;;;;;9.27;8.47;;;20.80;99.90;;;;;;4985127;28;20698;-92
2021/07/28 06:51:59;;;;;;;9.13;8.33;;;21.00;99.90;;;;;;4983059;28;20660;-93
2021/07/28 06:54:24;;;;;;;8.50;7.50;;;21.00;99.90;;;;;;4997084;28;20203;-92
2021/07/28 06:56:50;;;;;;;9.90;8.30;;;21.10;99.90;;;;;;4998756;28;20177;-92
2021/07/28 06:59:15;;;;;;;7.77;7.07;;;21.10;99.90;;;;;;4983562;28;20277;-91
2021/07/28 07:01:41;;;;;;;8.40;7.70;;;21.20;99.90;;;;;;4986908;28;20218;-91
2021/07/28 07:04:06;;;;;;;9.70;8.90;;;21.20;99.90;;;;;;4992390;28;20175;-90
2021/07/28 07:06:32;;;;;;;9.33;7.63;;;21.20;99.90;;;;;;4985626;28;20226;-91
2021/07/28 07:08:57;;;;;;;9.13;8.13;;;21.20;99.90;;;;;;4987278;28;20214;-91
2021/07/28 07:11:23;;;;;;;9.27;8.47;;;21.20;99.90;;;;;;4986300;28;20337;-91
2021/07/28 07:13:50;;;;;;;9.27;8.40;;;21.30;99.90;;;;;;4990224;28;20171;-92
2021/07/28 07:16:15;;;;;;;9.23;8.40;;;21.20;99.90;;;;;;4988851;28;20238;-92
2021/07/28 07:18:41;;;;;;;9.50;8.60;;;21.20;99.90;;;;;;4983296;28;20651;-92
2021/07/28 07:21:07;;;;;;;9.33;8.60;;;21.20;99.90;;;;;;4991092;28;20401;-94
2021/07/28 07:23:32;;;;;;;10.17;9.23;;;21.30;99.90;;;;;;4990618;28;20238;-90
2021/07/28 07:25:58;;;;;;;9.57;8.77;;;21.40;99.90;;;;;;4990467;28;20186;-89
2021/07/28 07:28:25;;;;;;;9.63;8.87;;;21.50;99.90;;;;;;4989496;28;20254;-93
2021/07/28 07:30:50;;;;;;;10.37;9.47;;;21.60;99.90;;;;;;4989800;28;20667;-92
2021/07/28 07:36:03;;;;;;;10.53;9.60;;;21.70;99.90;;;;;;4990501;28;20312;-93
2021/07/28 07:38:31;;;;;;;10.37;9.57;;;21.60;99.90;;;;;;5001305;28;20631;-95
2021/07/28 07:40:57;;;;;;;11.43;10.53;;;21.60;99.90;;;;;;4991973;28;20650;-92
2021/07/28 07:43:22;;;;;;;10.50;9.70;;;21.60;99.90;;;;;;4990699;28;20724;-93
2021/07/28 07:45:48;;;;;;;10.83;9.93;;;21.70;99.90;;;;;;4990009;28;20198;-93
2021/07/28 07:48:14;;;;;;;10.00;9.20;;;21.80;99.90;;;;;;4984805;28;20234;-92
2021/07/28 07:50:39;;;;;;;10.13;9.27;;;21.80;99.90;;;;;;4985212;28;20294;-92
2021/07/28 07:53:05;;;;;;;12.90;9.50;;;22.00;99.90;;;;;;4987365;28;20179;-91
2021/07/28 07:55:31;;;;;;;10.23;9.43;;;22.00;99.90;;;;;;4982162;28;20185;-92
2021/07/28 07:57:57;;;;;;;9.70;8.90;;;22.10;99.90;;;;;;4970889;28;20191;-93
2021/07/28 08:00:23;;;;;;;11.00;10.00;;;22.10;99.90;;;;;;4985511;28;20229;-91
2021/07/28 08:02:49;;;;;;;9.53;8.77;;;22.10;99.90;;;;;;4986646;28;20634;-92
2021/07/28 08:05:15;;;;;;;9.13;8.33;;;22.20;99.90;;;;;;4999597;28;20206;-93
2021/07/28 08:08:04;;;;;;;;;;;;;;;;;;;;;
2021/07/28 08:10:32;;;;;;;9.57;8.73;;;22.20;99.90;;;;;;4984569;28;20286;-91
2021/07/28 08:12:58;;;;;;;9.40;8.70;;;22.30;99.90;;;;;;4989726;28;20632;-92
2021/07/28 08:15:24;;;;;;;9.33;8.53;;;22.40;99.90;;;;;;4987263;28;20638;-92
2021/07/28 08:17:51;;;;;;;9.50;8.70;;;22.30;99.90;;;;;;4989441;28;20622;-91
2021/07/28 08:20:17;;;;;;;10.30;9.43;;;22.30;99.90;;;;;;4966293;28;20226;-91
2021/07/28 08:22:43;;;;;;;9.40;8.70;;;22.30;99.90;;;;;;4981976;28;20666;-91
2021/07/28 08:25:09;;;;;;;9.63;8.80;;;22.20;99.90;;;;;;4991279;28;20207;-92
2021/07/28 08:27:38;;;;;;;9.20;8.50;;;22.10;99.90;;;;;;5004155;28;20183;-92
2021/07/28 08:30:04;;;;;;;9.13;8.43;;;22.10;99.90;;;;;;4990344;28;20638;-91
2021/07/28 08:32:30;;;;;;;9.27;8.53;;;22.00;99.90;;;;;;4993257;28;20669;-90
2021/07/28 08:34:59;;;;;;;9.80;8.90;;;22.10;99.90;;;;;;5087531;23;20702;-92
2021/07/28 08:37:26;;;;;;;8.90;7.63;;;22.10;99.90;;;;;;5026556;28;20213;-91
2021/07/28 08:39:52;;;;;;;9.40;8.40;;;22.20;99.90;;;;;;5010640;28;20656;-91
2021/07/28 08:42:18;;;;;;;9.10;8.30;;;22.20;99.90;;;;;;4993328;28;20213;-91
2021/07/28 08:44:47;;;;;;;9.83;9.13;;;22.30;99.90;;;;;;4991772;28;20615;-91
2021/07/28 08:47:13;;;;;;;8.63;8.00;;;22.10;99.90;;;;;;4995061;28;20637;-90
2021/07/28 08:49:39;;;;;;;9.80;9.00;;;22.20;99.90;;;;;;4985503;28;20660;-91
2021/07/28 08:52:05;;;;;;;9.17;8.37;;;22.20;99.90;;;;;;4987192;28;20222;-91
2021/07/28 08:54:32;;;;;;;9.20;8.50;;;22.10;99.90;;;;;;4994320;28;20625;-92
2021/07/28 08:57:01;;;;;;;9.07;8.27;;;22.30;99.90;;;;;;4989140;28;20626;-92
2021/07/28 08:59:32;;;;;;;9.00;8.10;;;22.30;99.90;;;;;;5108220;23;20663;-91
2021/07/28 09:02:01;;;;;;;9.67;8.60;;;22.20;99.90;;;;;;4973743;28;20655;-92
2021/07/28 09:04:28;;;;;;;8.60;7.90;;;22.10;99.90;;;;;;4961881;29;20976;-92
2021/07/28 09:06:54;;;;;;;7.93;7.23;;;22.20;99.90;;;;;;4969877;29;20612;-91
2021/07/28 09:09:20;;;;;;;8.43;7.80;;;22.10;99.90;;;;;;4960351;28;20735;-92
2021/07/28 09:11:58;;;;;;;8.07;7.43;;;22.30;99.90;;;;;;4962098;28;20953;-91
2021/07/28 09:14:36;;;;;;;7.77;7.27;;;22.30;99.90;;;;;;4961725;28;20611;-91
2021/07/28 09:17:14;;;;;;;6.77;6.17;;;22.40;99.90;;;;;;4961922;28;20635;-92
2021/07/28 09:19:46;;;;;;;7.37;6.67;;;22.50;99.90;;;;;;4962964;28;20650;-93
2021/07/28 09:22:11;;;;;;;6.83;6.33;;;22.40;99.90;;;;;;4961711;28;20749;-92
2021/07/28 09:24:38;;;;;;;7.53;6.93;;;22.50;99.90;;;;;;4967402;28;20795;-91
2021/07/28 09:27:05;;;;;;;7.97;7.27;;;22.50;99.90;;;;;;4970901;28;20180;-94
2021/07/28 09:29:35;;;;;;;6.30;5.80;;;22.60;99.90;;;;;;4968005;28;20673;-92
2021/07/28 09:32:06;;;;;;;6.43;5.87;;;22.70;99.90;;;;;;5024132;23;20680;-92
2021/07/28 09:34:35;;;;;;;6.77;6.17;;;22.60;99.90;;;;;;4989997;28;20653;-90
2021/07/28 09:37:04;;;;;;;7.70;7.10;;;22.60;99.90;;;;;;4994618;28;20609;-92
2021/07/28 09:39:46;;;;;;;7.23;6.73;;;22.60;99.90;;;;;;4987348;28;20624;-91
2021/07/28 09:42:26;;;;;;;8.60;7.80;;;22.50;99.90;;;;;;4977007;28;20658;-92
2021/07/28 09:44:57;;;;;;;7.80;7.20;;;22.60;99.90;;;;;;4987240;28;20654;-91
2021/07/28 09:47:26;;;;;;;8.50;7.80;;;22.80;99.90;;;;;;4983234;28;20623;-91
2021/07/28 09:49:57;;;;;;;7.80;7.10;;;23.00;99.90;;;;;;4984508;28;20634;-91
2021/07/28 09:52:29;;;;;;;7.67;7.10;;;22.90;99.90;;;;;;4982564;28;20708;-91
2021/07/28 09:54:58;;;;;;;7.47;6.77;;;23.10;99.90;;;;;;4981457;28;20637;-92
2021/07/28 09:57:29;;;;;;;6.50;6.03;;;23.20;99.90;;;;;;4974489;28;20642;-92
2021/07/28 10:00:04;;;;;;;8.87;8.07;;;23.20;99.90;;;;;;4980993;28;20658;-93
2021/07/28 10:02:32;;;;;;;7.60;6.90;;;23.20;99.90;;;;;;4980624;28;20641;-92
2021/07/28 10:05:01;;;;;;;8.43;7.80;;;23.20;99.90;;;;;;4970841;28;20638;-92
2021/07/28 10:07:28;;;;;;;7.93;7.33;;;23.10;99.90;;;;;;4974159;28;20639;-91
2021/07/28 10:10:05;;;;;;;8.63;8.03;;;23.00;99.90;;;;;;4982002;28;20670;-92
2021/07/28 10:12:36;;;;;;;8.43;7.73;;;23.20;99.90;;;;;;4975478;28;20649;-92
2021/07/28 10:15:03;;;;;;;7.73;7.23;;;23.30;99.90;;;;;;4972719;28;20634;-91
2021/07/28 10:17:29;;;;;;;7.73;7.03;;;23.40;99.90;;;;;;4990047;28;22670;-91
2021/07/28 10:19:59;;;;;;;7.93;7.43;;;23.50;99.90;;;;;;4957697;28;20656;-91
2021/07/28 10:22:25;;;;;;;8.50;7.83;;;23.50;99.90;;;;;;4980837;28;20634;-93
2021/07/28 10:24:58;;;;;;;7.50;6.97;;;23.50;99.90;;;;;;4978478;28;20630;-92
2021/07/28 10:27:25;;;;;;;7.90;7.30;;;23.30;99.90;;;;;;4975015;28;20742;-92
2021/07/28 10:29:51;;;;;;;7.50;7.00;;;23.40;99.90;;;;;;4960578;28;20645;-92
2021/07/28 10:32:31;;;;;;;7.67;7.00;;;23.60;99.90;;;;;;4970470;28;20658;-91
2021/07/28 10:35:18;;;;;;;7.30;6.70;;;23.60;99.90;;;;;;4974791;28;20621;-93
2021/07/28 10:37:44;;;;;;;6.83;6.27;;;23.30;99.90;;;;;;4975779;28;20618;-92
2021/07/28 10:40:31;;;;;;;7.97;7.37;;;23.60;99.90;;;;;;4975398;28;20734;-92
2021/07/28 10:42:59;;;;;;;6.80;6.30;;;23.60;99.90;;;;;;4973035;28;20639;-92
2021/07/28 10:45:26;;;;;;;6.67;6.17;;;23.60;99.90;;;;;;4984606;28;20622;-92
2021/07/28 10:47:52;;;;;;;6.03;5.63;;;23.60;99.90;;;;;;4987725;28;20814;-91
2021/07/28 10:50:48;;;;;;;6.57;6.10;;;23.60;99.90;;;;;;4981204;28;20646;-92
2021/07/28 10:53:47;;;;;;;6.53;6.03;;;23.80;99.90;;;;;;5095129;23;20684;-93
2021/07/28 10:56:13;;;;;;;7.00;6.50;;;23.80;99.90;;;;;;4985939;28;20637;-92
2021/07/28 10:58:38;;;;;;;6.50;6.00;;;24.00;99.90;;;;;;4972348;28;20621;-91
2021/07/28 11:01:04;;;;;;;7.07;6.57;;;24.00;99.90;;;;;;4973005;28;20309;-92
2021/07/28 11:03:30;;;;;;;6.83;6.23;;;24.10;99.90;;;;;;4969636;28;20190;-91
2021/07/28 11:06:17;;;;;;;6.20;5.70;;;24.20;99.90;;;;;;4984428;28;20495;-94
2021/07/28 11:08:45;;;;;;;6.37;5.93;;;24.30;99.90;;;;;;4988362;28;20656;-93
2021/07/28 11:11:20;;;;;;;6.37;5.87;;;24.50;99.90;;;;;;4991979;28;20650;-92
2021/07/28 11:13:46;;;;;;;6.63;6.03;;;24.50;99.90;;;;;;4981476;28;20694;-92
2021/07/28 11:16:15;;;;;;;6.97;6.53;;;24.60;99.90;;;;;;4978036;28;20618;-93
2021/07/28 11:18:44;;;;;;;6.77;6.27;;;24.50;99.90;;;;;;4991794;28;20202;-92
2021/07/28 11:21:14;;;;;;;7.43;6.73;;;24.50;99.90;;;;;;4974179;28;21521;-92
2021/07/28 11:23:41;;;;;;;6.87;6.37;;;24.50;99.90;;;;;;4987561;28;20619;-91
2021/07/28 11:26:23;;;;;;;6.87;6.37;;;24.60;99.90;;;;;;4967009;28;20668;-92
2021/07/28 11:28:52;;;;;;;7.13;6.60;;;24.80;99.90;;;;;;4975287;28;20625;-94
2021/07/28 11:31:27;;;;;;;6.00;5.60;;;24.90;99.90;;;;;;5004150;28;20643;-93
2021/07/28 11:34:02;;;;;;;6.57;5.97;;;25.00;99.90;;;;;;5001470;28;20641;-94
2021/07/28 11:36:27;;;;;;;6.23;5.73;;;24.90;99.90;;;;;;4989081;28;20629;-94
2021/07/28 11:38:53;;;;;;;6.10;5.67;;;24.80;99.90;;;;;;4990879;28;20630;-93
2021/07/28 11:41:21;;;;;;;6.90;6.40;;;24.80;99.90;;;;;;4986614;28;20298;-93
2021/07/28 11:43:47;;;;;;;6.97;6.37;;;24.70;99.90;;;;;;4985781;28;20186;-92
2021/07/28 11:46:18;;;;;;;6.63;6.13;;;24.70;99.90;;;;;;4988834;28;20652;-94
2021/07/28 11:48:50;;;;;;;6.07;5.70;;;24.70;99.90;;;;;;4983645;28;20182;-94
2021/07/28 11:51:32;;;;;;;6.00;5.60;;;24.70;99.90;;;;;;4982725;28;20654;-92
2021/07/28 11:54:12;;;;;;;6.60;6.00;;;24.60;99.90;;;;;;4970070;28;20633;-91
2021/07/28 11:56:48;;;;;;;6.97;6.40;;;24.60;99.90;;;;;;4989013;28;20614;-91
2021/07/28 11:59:18;;;;;;;6.30;5.90;;;24.50;99.90;;;;;;4982168;28;20648;-91
2021/07/28 12:01:49;;;;;;;6.23;5.73;;;24.40;99.90;;;;;;4967243;28;20662;-92
2021/07/28 12:04:21;;;;;;;6.17;5.77;;;24.40;99.90;;;;;;4969722;28;20629;-91
2021/07/28 12:06:47;;;;;;;7.57;6.97;;;24.30;99.90;;;;;;4963886;28;20626;-91
2021/07/28 12:09:24;;;;;;;6.90;6.40;;;24.30;99.90;;;;;;4972389;28;20628;-91
2021/07/28 12:11:54;;;;;;;6.30;5.70;;;24.40;99.90;;;;;;4965154;28;20645;-91
2021/07/28 12:14:43;;;;;;;6.33;5.93;;;24.40;99.90;;;;;;4963348;28;21437;-91
2021/07/28 12:17:14;;;;;;;6.87;6.20;;;24.30;99.90;;;;;;4964228;28;20640;-93
2021/07/28 12:19:50;;;;;;;7.80;7.10;;;24.20;99.90;;;;;;4966151;28;20650;-91
2021/07/28 12:22:15;;;;;;;6.80;6.27;;;24.20;99.90;;;;;;4981709;28;20719;-91
2021/07/28 12:24:45;;;;;;;7.73;7.03;;;24.30;99.90;;;;;;4973292;28;20625;-91
2021/07/28 12:27:29;;;;;;;8.60;7.80;;;24.30;99.90;;;;;;4970240;28;20182;-91
2021/07/28 12:30:04;;;;;;;6.97;6.47;;;24.40;99.90;;;;;;4964321;28;20626;-92
2021/07/28 12:32:45;;;;;;;7.07;6.47;;;24.70;99.90;;;;;;4983380;28;21104;-91
2021/07/28 12:35:21;;;;;;;6.60;6.10;;;24.90;99.90;;;;;;4984805;28;20629;-92
2021/07/28 12:38:06;;;;;;;6.17;5.77;;;25.00;99.90;;;;;;4965468;28;20626;-90
2021/07/28 12:40:32;;;;;;;5.70;5.30;;;25.10;99.90;;;;;;4965240;28;21304;-92
2021/07/28 12:42:58;;;;;;;5.20;4.80;;;25.30;99.90;;;;;;4954663;28;20613;-91
2021/07/28 12:45:24;;;;;;;5.27;4.87;;;25.40;99.90;;;;;;4968874;28;20716;-91
2021/07/28 12:47:50;;;;;;;5.80;4.80;;;25.60;99.90;;;;;;4963467;28;20205;-92
2021/07/28 12:50:19;;;;;;;5.50;5.10;;;25.70;99.90;;;;;;4963621;28;20218;-92
2021/07/28 12:52:46;;;;;;;5.43;5.13;;;25.90;99.90;;;;;;4979969;28;20191;-93
2021/07/28 12:55:27;;;;;;;5.57;5.10;;;25.90;99.90;;;;;;4973871;28;20633;-91
2021/07/28 12:58:02;;;;;;;5.70;5.30;;;25.80;99.90;;;;;;4972570;28;20641;-93
2021/07/28 13:00:41;;;;;;;6.13;5.63;;;25.90;99.90;;;;;;4981652;28;21236;-93
2021/07/28 13:03:07;;;;;;;6.87;5.30;;;26.20;99.90;;;;;;4969312;28;21118;-91
2021/07/28 13:05:41;;;;;;;5.77;5.37;;;26.20;99.90;;;;;;4966856;28;20627;-92
2021/07/28 13:08:11;;;;;;;5.17;4.87;;;26.30;99.90;;;;;;4965667;28;20656;-91
2021/07/28 13:10:46;;;;;;;5.50;5.10;;;26.30;99.90;;;;;;4982711;28;20658;-93
2021/07/28 13:13:12;;;;;;;4.90;4.60;;;26.40;99.90;;;;;;4969032;28;21087;-93
2021/07/28 13:15:40;;;;;;;5.17;4.80;;;26.30;99.90;;;;;;4973289;28;20729;-91
2021/07/28 13:18:06;;;;;;;5.40;5.00;;;26.30;99.90;;;;;;4990692;28;20630;-93
2021/07/28 13:20:32;;;;;;;5.90;5.40;;;26.30;99.90;;;;;;4970761;28;20700;-91
2021/07/28 13:22:58;;;;;;;5.73;5.40;;;26.20;99.90;;;;;;4967293;28;20749;-93
2021/07/28 13:25:24;;;;;;;5.77;5.37;;;26.30;99.90;;;;;;4970608;28;21190;-92
2021/07/28 13:27:49;;;;;;;6.20;5.63;;;26.10;99.90;;;;;;4971088;28;20613;-91
2021/07/28 13:30:15;;;;;;;5.13;4.83;;;26.00;99.90;;;;;;4971919;28;20232;-92
2021/07/28 13:32:42;;;;;;;5.93;5.53;;;25.90;99.90;;;;;;4968835;28;20194;-91
2021/07/28 13:35:11;;;;;;;5.63;5.23;;;25.80;99.90;;;;;;4972915;28;20194;-91
2021/07/28 13:37:38;;;;;;;5.83;5.33;;;25.70;99.90;;;;;;4967529;28;20645;-92
2021/07/28 13:40:09;;;;;;;5.77;5.27;;;25.60;99.90;;;;;;4989521;28;20657;-92
2021/07/28 13:42:45;;;;;;;5.10;4.60;;;25.40;99.90;;;;;;4968568;28;20618;-92
2021/07/28 13:45:12;;;;;;;4.87;4.47;;;25.30;99.90;;;;;;4973932;28;20740;-91
2021/07/28 13:47:40;;;;;;;5.00;4.70;;;25.30;99.90;;;;;;4976953;28;20684;-91
2021/07/28 13:50:07;;;;;;;5.10;4.60;;;25.20;99.90;;;;;;4969114;28;20729;-92
2021/07/28 13:52:33;;;;;;;4.93;4.50;;;25.20;99.90;;;;;;4977727;28;20664;-92
2021/07/28 13:54:58;;;;;;;5.50;5.10;;;25.40;99.90;;;;;;4977930;28;20645;-92
2021/07/28 13:57:24;;;;;;;5.23;4.83;;;25.40;99.90;;;;;;4973038;28;20194;-91
2021/07/28 13:59:49;;;;;;;5.00;4.70;;;25.40;99.90;;;;;;4973070;28;20595;-91
2021/07/28 14:02:16;;;;;;;4.83;4.43;;;25.40;99.90;;;;;;4965382;28;20241;-92
2021/07/28 14:04:42;;;;;;;4.50;3.40;;;25.30;99.90;;;;;;4967332;28;20194;-93
2021/07/28 14:07:09;;;;;;;3.50;3.30;;;25.20;99.90;;;;;;4973800;28;20601;-92
2021/07/28 14:09:35;;;;;;;3.67;3.37;;;25.00;99.90;;;;;;4971304;28;20721;-92
2021/07/28 14:12:03;;;;;;;4.17;3.87;;;24.80;99.90;;;;;;4970832;28;20644;-90
2021/07/28 14:14:31;;;;;;;4.40;4.03;;;24.60;99.90;;;;;;4976602;28;20597;-92
2021/07/28 14:17:01;;;;;;;4.87;4.47;;;24.50;99.90;;;;;;4969178;28;23129;-91
2021/07/28 14:19:28;;;;;;;3.93;3.67;;;24.60;99.90;;;;;;4968076;28;21038;-92
2021/07/28 14:21:54;;;;;;;3.70;3.50;;;24.80;99.90;;;;;;4970601;28;20677;-92
2021/07/28 14:24:19;;;;;;;3.80;3.50;;;24.80;99.90;;;;;;4966488;28;20964;-93
2021/07/28 14:26:45;;;;;;;4.20;3.90;;;24.90;99.90;;;;;;4966445;28;20190;-91
2021/07/28 14:29:10;;;;;;;3.77;3.47;;;25.00;99.90;;;;;;4969510;28;20190;-92
2021/07/28 14:31:36;;;;;;;3.53;3.30;;;25.10;99.90;;;;;;4967496;28;20217;-90